sensor_id;sensor_type;location;lat;lon;timestamp;pressure;altitude;pressure_sealevel;temperature;humidity
59757;BME280;45631;51.962;5.974;2023-04-01T00:01:10;98916.00;;;8.91;100.00
59757;BME280;45631;51.962;5.974;2023-04-01T00:03:42;98916.81;;;8.91;100.00
59757;BME280;45631;51.962;5.974;2023-04-01T00:06:13;98917.25;;;8.96;100.00
59757;BME280;45631;51.962;5.974;2023-04-01T00:08:41;98918.78;;;8.89;100.00
59757;BME280;45631;51.962;5.974;2023-04-01T00:11:11;98914.63;;;8.96;100.00
59757;BME280;45631;51.962;5.974;2023-04-01T00:13:39;98922.06;;;8.91;100.00
59757;BME280;45631;51.962;5.974;2023-04-01T00:16:07;98928.03;;;8.93;100.00
59757;BME280;45631;51.962;5.974;2023-04-01T00:18:49;98925.41;;;8.93;100.00
59757;BME280;45631;51.962;5.974;2023-04-01T00:21:21;98926.63;;;8.89;100.00
59757;BME280;45631;51.962;5.974;2023-04-01T00:23:50;98924.03;;;8.89;100.00
59757;BME280;45631;51.962;5.974;2023-04-01T00:26:19;98927.59;;;8.88;100.00
59757;BME280;45631;51.962;5.974;2023-04-01T00:28:49;98926.22;;;8.84;100.00
59757;BME280;45631;51.962;5.974;2023-04-01T00:31:17;98920.53;;;8.89;100.00
59757;BME280;45631;51.962;5.974;2023-04-01T00:33:46;98923.31;;;8.87;100.00
59757;BME280;45631;51.962;5.974;2023-04-01T00:36:17;98931.59;;;8.92;100.00
59757;BME280;45631;51.962;5.974;2023-04-01T00:38:46;98924.44;;;8.94;100.00
59757;BME280;45631;51.962;5.974;2023-04-01T00:41:16;98930.22;;;8.88;100.00
59757;BME280;45631;51.962;5.974;2023-04-01T00:43:45;98929.69;;;8.94;100.00
59757;BME280;45631;51.962;5.974;2023-04-01T00:46:14;98924.44;;;8.94;100.00
59757;BME280;45631;51.962;5.974;2023-04-01T00:48:45;98929.84;;;9.03;100.00
59757;BME280;45631;51.962;5.974;2023-04-01T00:51:19;98929.69;;;9.04;100.00
59757;BME280;45631;51.962;5.974;2023-04-01T00:53:50;98930.94;;;9.00;100.00
59757;BME280;45631;51.962;5.974;2023-04-01T00:56:22;98936.72;;;9.04;100.00
59757;BME280;45631;51.962;5.974;2023-04-01T00:58:56;98933.56;;;9.00;100.00
59757;BME280;45631;51.962;5.974;2023-04-01T01:01:28;98938.53;;;9.03;100.00
59757;BME280;45631;51.962;5.974;2023-04-01T01:03:57;98937.69;;;9.03;100.00
59757;BME280;45631;51.962;5.974;2023-04-01T01:06:41;98938.38;;;9.05;100.00
59757;BME280;45631;51.962;5.974;2023-04-01T01:09:25;98940.19;;;9.04;100.00
59757;BME280;45631;51.962;5.974;2023-04-01T01:12:03;98945.81;;;9.00;100.00
59757;BME280;45631;51.962;5.974;2023-04-01T01:14:43;98943.19;;;9.00;100.00
59757;BME280;45631;51.962;5.974;2023-04-01T01:17:17;98939.47;;;9.02;100.00
59757;BME280;45631;51.962;5.974;2023-04-01T01:20:00;98944.56;;;9.04;100.00
59757;BME280;45631;51.962;5.974;2023-04-01T01:26:04;98944.56;;;9.04;100.00
59757;BME280;45631;51.962;5.974;2023-04-01T01:28:44;98946.38;;;9.03;100.00
59757;BME280;45631;51.962;5.974;2023-04-01T01:31:19;98948.47;;;9.09;100.00
59757;BME280;45631;51.962;5.974;2023-04-01T01:33:56;98944.03;;;9.00;100.00
59757;BME280;45631;51.962;5.974;2023-04-01T01:36:28;98950.09;;;9.01;100.00
59757;BME280;45631;51.962;5.974;2023-04-01T01:39:03;98948.72;;;8.96;100.00
59757;BME280;45631;51.962;5.974;2023-04-01T01:41:34;98947.91;;;8.96;100.00
59757;BME280;45631;51.962;5.974;2023-04-01T01:44:05;98951.06;;;9.00;100.00
59757;BME280;45631;51.962;5.974;2023-04-01T01:46:34;98953.00;;;8.98;100.00
59757;BME280;45631;51.962;5.974;2023-04-01T01:49:07;98952.16;;;8.97;100.00
59757;BME280;45631;51.962;5.974;2023-04-01T01:51:39;98953.44;;;9.03;100.00
59757;BME280;45631;51.962;5.974;2023-04-01T01:54:12;98957.59;;;9.05;100.00
59757;BME280;45631;51.962;5.974;2023-04-01T01:56:41;98954.25;;;9.03;100.00
59757;BME280;45631;51.962;5.974;2023-04-01T01:59:14;98958.78;;;9.01;100.00
59757;BME280;45631;51.962;5.974;2023-04-01T02:01:46;98959.22;;;9.06;100.00
59757;BME280;45631;51.962;5.974;2023-04-01T02:04:16;98966.94;;;9.08;100.00
59757;BME280;45631;51.962;5.974;2023-04-01T02:06:50;98955.63;;;9.07;100.00
59757;BME280;45631;51.962;5.974;2023-04-01T02:09:20;98963.50;;;9.07;100.00
59757;BME280;45631;51.962;5.974;2023-04-01T02:11:50;98972.19;;;9.08;100.00
59757;BME280;45631;51.962;5.974;2023-04-01T02:14:21;98977.28;;;9.00;100.00
59757;BME280;45631;51.962;5.974;2023-04-01T02:16:53;98971.78;;;9.03;100.00
59757;BME280;45631;51.962;5.974;2023-04-01T02:19:26;98984.34;;;8.99;100.00
59757;BME280;45631;51.962;5.974;2023-04-01T02:22:00;98982.53;;;9.00;100.00
59757;BME280;45631;51.962;5.974;2023-04-01T02:24:31;98975.66;;;8.99;100.00
59757;BME280;45631;51.962;5.974;2023-04-01T02:27:01;98978.50;;;8.95;100.00
59757;BME280;45631;51.962;5.974;2023-04-01T02:29:30;98996.34;;;9.02;100.00
59757;BME280;45631;51.962;5.974;2023-04-01T02:31:58;98976.31;;;9.01;100.00
59757;BME280;45631;51.962;5.974;2023-04-01T02:34:27;98978.94;;;9.01;100.00
59757;BME280;45631;51.962;5.974;2023-04-01T02:36:57;98996.63;;;8.99;100.00
59757;BME280;45631;51.962;5.974;2023-04-01T02:39:25;98984.03;;;8.92;100.00
59757;BME280;45631;51.962;5.974;2023-04-01T02:41:54;98990.94;;;8.93;100.00
59757;BME280;45631;51.962;5.974;2023-04-01T02:44:22;99001.00;;;8.88;100.00
59757;BME280;45631;51.962;5.974;2023-04-01T02:46:50;98999.09;;;8.90;100.00
59757;BME280;45631;51.962;5.974;2023-04-01T02:49:19;98990.94;;;8.93;100.00
59757;BME280;45631;51.962;5.974;2023-04-01T02:51:48;99003.91;;;8.95;100.00
59757;BME280;45631;51.962;5.974;2023-04-01T02:54:17;99005.72;;;8.94;100.00
59757;BME280;45631;51.962;5.974;2023-04-01T02:56:45;99005.31;;;8.99;100.00
59757;BME280;45631;51.962;5.974;2023-04-01T02:59:14;99008.59;;;8.91;100.00
59757;BME280;45631;51.962;5.974;2023-04-01T03:01:44;98991.91;;;8.92;100.00
59757;BME280;45631;51.962;5.974;2023-04-01T03:04:12;98998.09;;;8.91;100.00
59757;BME280;45631;51.962;5.974;2023-04-01T03:06:40;99000.03;;;8.89;100.00
59757;BME280;45631;51.962;5.974;2023-04-01T03:09:08;99000.31;;;8.86;100.00
59757;BME280;45631;51.962;5.974;2023-04-01T03:11:38;99001.28;;;8.85;100.00
59757;BME280;45631;51.962;5.974;2023-04-01T03:14:07;99003.75;;;8.87;100.00
59757;BME280;45631;51.962;5.974;2023-04-01T03:16:35;99006.25;;;8.88;100.00
59757;BME280;45631;51.962;5.974;2023-04-01T03:19:03;99005.56;;;8.86;100.00
59757;BME280;45631;51.962;5.974;2023-04-01T03:21:31;99010.38;;;8.91;100.00
59757;BME280;45631;51.962;5.974;2023-04-01T03:24:00;99016.06;;;8.86;100.00
59757;BME280;45631;51.962;5.974;2023-04-01T03:26:28;99010.91;;;8.85;100.00
59757;BME280;45631;51.962;5.974;2023-04-01T03:28:57;99014.91;;;8.79;100.00
59757;BME280;45631;51.962;5.974;2023-04-01T03:31:25;99008.84;;;8.78;100.00
59757;BME280;45631;51.962;5.974;2023-04-01T03:33:54;99012.28;;;8.79;100.00
59757;BME280;45631;51.962;5.974;2023-04-01T03:36:22;99016.84;;;8.77;100.00
59757;BME280;45631;51.962;5.974;2023-04-01T03:38:50;99017.28;;;8.82;100.00
59757;BME280;45631;51.962;5.974;2023-04-01T03:41:18;99017.28;;;8.82;100.00
59757;BME280;45631;51.962;5.974;2023-04-01T03:43:47;99021.00;;;8.79;100.00
59757;BME280;45631;51.962;5.974;2023-04-01T03:46:18;99025.66;;;8.76;100.00
59757;BME280;45631;51.962;5.974;2023-04-01T03:48:47;99016.56;;;8.80;100.00
59757;BME280;45631;51.962;5.974;2023-04-01T03:51:17;99021.94;;;8.78;100.00
59757;BME280;45631;51.962;5.974;2023-04-01T03:53:46;99017.66;;;8.77;100.00
59757;BME280;45631;51.962;5.974;2023-04-01T03:56:14;99022.31;;;8.74;100.00
59757;BME280;45631;51.962;5.974;2023-04-01T03:58:42;99017.94;;;8.74;100.00
59757;BME280;45631;51.962;5.974;2023-04-01T04:01:15;99028.28;;;8.76;100.00
59757;BME280;45631;51.962;5.974;2023-04-01T04:03:44;99021.22;;;8.76;100.00
59757;BME280;45631;51.962;5.974;2023-04-01T04:06:13;99025.78;;;8.74;100.00
59757;BME280;45631;51.962;5.974;2023-04-01T04:08:45;99026.19;;;8.70;100.00
59757;BME280;45631;51.962;5.974;2023-04-01T04:11:13;99030.31;;;8.72;100.00
59757;BME280;45631;51.962;5.974;2023-04-01T04:13:41;99030.31;;;8.72;100.00
59757;BME280;45631;51.962;5.974;2023-04-01T04:16:10;99032.00;;;8.73;100.00
59757;BME280;45631;51.962;5.974;2023-04-01T04:18:38;99035.97;;;8.68;100.00
59757;BME280;45631;51.962;5.974;2023-04-01T04:21:13;99046.97;;;8.61;100.00
59757;BME280;45631;51.962;5.974;2023-04-01T04:23:43;99040.09;;;8.60;100.00
59757;BME280;45631;51.962;5.974;2023-04-01T04:26:13;99041.88;;;8.60;100.00
59757;BME280;45631;51.962;5.974;2023-04-01T04:28:41;99043.66;;;8.59;100.00
59757;BME280;45631;51.962;5.974;2023-04-01T04:31:09;99038.03;;;8.64;100.00
59757;BME280;45631;51.962;5.974;2023-04-01T04:33:37;99054.00;;;8.61;100.00
59757;BME280;45631;51.962;5.974;2023-04-01T04:36:06;99047.69;;;8.63;100.00
59757;BME280;45631;51.962;5.974;2023-04-01T04:38:36;99048.78;;;8.61;100.00
59757;BME280;45631;51.962;5.974;2023-04-01T04:41:08;99042.00;;;8.58;100.00
59757;BME280;45631;51.962;5.974;2023-04-01T04:43:37;99049.03;;;8.58;100.00
59757;BME280;45631;51.962;5.974;2023-04-01T04:46:06;99051.25;;;8.62;100.00
59757;BME280;45631;51.962;5.974;2023-04-01T04:48:34;99047.94;;;8.60;100.00
59757;BME280;45631;51.962;5.974;2023-04-01T04:51:02;99054.97;;;8.60;100.00
59757;BME280;45631;51.962;5.974;2023-04-01T04:53:31;99053.31;;;8.59;100.00
59757;BME280;45631;51.962;5.974;2023-04-01T04:56:00;99051.28;;;8.72;100.00
59757;BME280;45631;51.962;5.974;2023-04-01T04:58:31;99053.09;;;8.72;100.00
59757;BME280;45631;51.962;5.974;2023-04-01T05:01:05;99065.75;;;8.67;100.00
59757;BME280;45631;51.962;5.974;2023-04-01T05:03:33;99065.06;;;8.65;100.00
59757;BME280;45631;51.962;5.974;2023-04-01T05:06:02;99062.31;;;8.66;100.00
59757;BME280;45631;51.962;5.974;2023-04-01T05:08:30;99066.72;;;8.66;100.00
59757;BME280;45631;51.962;5.974;2023-04-01T05:11:01;99068.38;;;8.67;100.00
59757;BME280;45631;51.962;5.974;2023-04-01T05:13:30;99064.81;;;8.68;100.00
59757;BME280;45631;51.962;5.974;2023-04-01T05:15:58;99072.94;;;8.65;100.00
59757;BME280;45631;51.962;5.974;2023-04-01T05:18:26;99074.72;;;8.64;100.00
59757;BME280;45631;51.962;5.974;2023-04-01T05:20:54;99074.72;;;8.64;100.00
59757;BME280;45631;51.962;5.974;2023-04-01T05:23:23;99077.91;;;8.68;100.00
59757;BME280;45631;51.962;5.974;2023-04-01T05:25:51;99077.09;;;8.67;100.00
59757;BME280;45631;51.962;5.974;2023-04-01T05:28:21;99083.16;;;8.68;100.00
59757;BME280;45631;51.962;5.974;2023-04-01T05:30:49;99087.44;;;8.69;100.00
59757;BME280;45631;51.962;5.974;2023-04-01T05:33:17;99090.88;;;8.69;100.00
59757;BME280;45631;51.962;5.974;2023-04-01T05:35:45;99091.69;;;8.70;100.00
59757;BME280;45631;51.962;5.974;2023-04-01T05:38:14;99087.69;;;8.66;100.00
59757;BME280;45631;51.962;5.974;2023-04-01T05:40:44;99100.69;;;8.67;100.00
59757;BME280;45631;51.962;5.974;2023-04-01T05:43:13;99097.22;;;8.67;100.00
59757;BME280;45631;51.962;5.974;2023-04-01T05:45:42;99101.75;;;8.65;100.00
59757;BME280;45631;51.962;5.974;2023-04-01T05:48:10;99105.66;;;8.70;100.00
59757;BME280;45631;51.962;5.974;2023-04-01T05:50:40;99100.28;;;8.72;100.00
59757;BME280;45631;51.962;5.974;2023-04-01T05:53:09;99116.56;;;8.75;100.00
59757;BME280;45631;51.962;5.974;2023-04-01T05:55:37;99117.53;;;8.74;100.00
59757;BME280;45631;51.962;5.974;2023-04-01T05:58:05;99118.09;;;8.78;100.00
59757;BME280;45631;51.962;5.974;2023-04-01T06:00:33;99130.22;;;8.79;100.00
59757;BME280;45631;51.962;5.974;2023-04-01T06:03:03;99122.63;;;8.76;100.00
59757;BME280;45631;51.962;5.974;2023-04-01T06:05:38;99129.69;;;8.75;100.00
59757;BME280;45631;51.962;5.974;2023-04-01T06:08:11;99130.63;;;8.74;100.00
59757;BME280;45631;51.962;5.974;2023-04-01T06:10:50;99137.41;;;8.77;100.00
59757;BME280;45631;51.962;5.974;2023-04-01T06:13:32;99151.34;;;8.77;100.00
59757;BME280;45631;51.962;5.974;2023-04-01T06:16:10;99148.97;;;8.74;100.00
59757;BME280;45631;51.962;5.974;2023-04-01T06:19:06;99146.22;;;8.76;100.00
59757;BME280;45631;51.962;5.974;2023-04-01T06:21:55;99159.91;;;8.79;100.00
59757;BME280;45631;51.962;5.974;2023-04-01T06:24:45;99161.81;;;8.77;100.00
59757;BME280;45631;51.962;5.974;2023-04-01T06:27:23;99168.28;;;8.73;100.00
59757;BME280;45631;51.962;5.974;2023-04-01T06:30:05;99167.06;;;8.77;100.00
59757;BME280;45631;51.962;5.974;2023-04-01T06:32:55;99168.00;;;8.76;100.00
59757;BME280;45631;51.962;5.974;2023-04-01T06:35:44;99180.03;;;8.79;100.00
59757;BME280;45631;51.962;5.974;2023-04-01T06:38:25;99181.25;;;8.75;100.00
59757;BME280;45631;51.962;5.974;2023-04-01T06:41:13;99187.78;;;8.80;100.00
59757;BME280;45631;51.962;5.974;2023-04-01T06:43:55;99189.06;;;8.86;100.00
59757;BME280;45631;51.962;5.974;2023-04-01T06:46:33;99190.84;;;8.86;100.00
59757;BME280;45631;51.962;5.974;2023-04-01T06:49:17;99194.31;;;8.86;100.00
59757;BME280;45631;51.962;5.974;2023-04-01T06:51:55;99203.19;;;8.95;100.00
59757;BME280;45631;51.962;5.974;2023-04-01T06:54:31;99209.81;;;8.99;100.00
59757;BME280;45631;51.962;5.974;2023-04-01T06:57:00;99209.31;;;9.05;100.00
59757;BME280;45631;51.962;5.974;2023-04-01T06:59:32;99219.22;;;9.02;100.00
59757;BME280;45631;51.962;5.974;2023-04-01T07:02:05;99219.59;;;8.97;100.00
59757;BME280;45631;51.962;5.974;2023-04-01T07:04:44;99224.06;;;9.06;100.00
59757;BME280;45631;51.962;5.974;2023-04-01T07:07:21;99226.56;;;9.08;100.00
59757;BME280;45631;51.962;5.974;2023-04-01T07:09:54;99224.91;;;9.07;100.00
59757;BME280;45631;51.962;5.974;2023-04-01T07:12:36;99227.53;;;9.07;100.00
59757;BME280;45631;51.962;5.974;2023-04-01T07:15:14;99235.84;;;9.12;100.00
59757;BME280;45631;51.962;5.974;2023-04-01T07:17:45;99237.38;;;9.14;100.00
59757;BME280;45631;51.962;5.974;2023-04-01T07:20:20;99230.91;;;9.19;100.00
59757;BME280;45631;51.962;5.974;2023-04-01T07:22:52;99239.47;;;9.21;100.00
59757;BME280;45631;51.962;5.974;2023-04-01T07:25:22;99252.47;;;9.22;100.00
59757;BME280;45631;51.962;5.974;2023-04-01T07:27:53;99255.81;;;9.24;100.00
59757;BME280;45631;51.962;5.974;2023-04-01T07:30:25;99249.44;;;9.27;100.00
59757;BME280;45631;51.962;5.974;2023-04-01T07:33:01;99250.03;;;9.30;100.00
59757;BME280;45631;51.962;5.974;2023-04-01T07:35:36;99267.16;;;9.35;100.00
59757;BME280;45631;51.962;5.974;2023-04-01T07:38:19;99260.69;;;9.39;100.00
59757;BME280;45631;51.962;5.974;2023-04-01T07:40:58;99263.75;;;9.44;100.00
59757;BME280;45631;51.962;5.974;2023-04-01T07:43:49;99273.31;;;9.45;100.00
59757;BME280;45631;51.962;5.974;2023-04-01T07:46:29;99274.25;;;9.44;100.00
59757;BME280;45631;51.962;5.974;2023-04-01T07:49:06;99279.94;;;9.49;100.00
59757;BME280;45631;51.962;5.974;2023-04-01T07:51:38;99280.38;;;9.54;100.00
59757;BME280;45631;51.962;5.974;2023-04-01T07:54:13;99287.16;;;9.57;100.00
59757;BME280;45631;51.962;5.974;2023-04-01T07:56:51;99289.13;;;9.64;100.00
59757;BME280;45631;51.962;5.974;2023-04-01T07:59:26;99285.00;;;9.72;100.00
59757;BME280;45631;51.962;5.974;2023-04-01T08:02:06;99295.16;;;9.86;100.00
59757;BME280;45631;51.962;5.974;2023-04-01T08:04:46;99303.59;;;9.90;100.00
59757;BME280;45631;51.962;5.974;2023-04-01T08:07:22;99305.00;;;9.94;100.00
59757;BME280;45631;51.962;5.974;2023-04-01T08:09:57;99305.97;;;10.03;100.00
59757;BME280;45631;51.962;5.974;2023-04-01T08:12:35;99311.81;;;10.06;100.00
59757;BME280;45631;51.962;5.974;2023-04-01T08:15:17;99313.88;;;10.12;100.00
59757;BME280;45631;51.962;5.974;2023-04-01T08:17:59;99317.38;;;10.13;100.00
59757;BME280;45631;51.962;5.974;2023-04-01T08:20:34;99324.00;;;10.17;100.00
59757;BME280;45631;51.962;5.974;2023-04-01T08:23:07;99327.88;;;10.23;100.00
59757;BME280;45631;51.962;5.974;2023-04-01T08:25:44;99331.63;;;10.30;100.00
59757;BME280;45631;51.962;5.974;2023-04-01T08:28:19;99331.19;;;10.25;100.00
59757;BME280;45631;51.962;5.974;2023-04-01T08:30:52;99331.50;;;10.31;100.00
59757;BME280;45631;51.962;5.974;2023-04-01T08:33:24;99345.44;;;10.32;100.00
59757;BME280;45631;51.962;5.974;2023-04-01T08:35:57;99344.63;;;10.31;100.00
59757;BME280;45631;51.962;5.974;2023-04-01T08:38:31;99346.81;;;10.26;100.00
59757;BME280;45631;51.962;5.974;2023-04-01T08:41:09;99353.22;;;10.34;100.00
59757;BME280;45631;51.962;5.974;2023-04-01T08:43:59;99351.03;;;10.39;100.00
59757;BME280;45631;51.962;5.974;2023-04-01T08:46:56;99356.28;;;10.39;100.00
59757;BME280;45631;51.962;5.974;2023-04-01T08:49:43;99362.41;;;10.39;100.00
59757;BME280;45631;51.962;5.974;2023-04-01T08:52:23;99359.50;;;10.42;100.00
59757;BME280;45631;51.962;5.974;2023-04-01T08:55:12;99364.06;;;10.40;100.00
59757;BME280;45631;51.962;5.974;2023-04-01T08:57:56;99370.44;;;10.47;100.00
59757;BME280;45631;51.962;5.974;2023-04-01T09:00:31;99372.50;;;10.54;100.00
59757;BME280;45631;51.962;5.974;2023-04-01T09:03:23;99375.69;;;10.47;100.00
59757;BME280;45631;51.962;5.974;2023-04-01T09:06:25;99378.84;;;10.41;100.00
59757;BME280;45631;51.962;5.974;2023-04-01T09:12:31;99390.22;;;10.42;100.00
59757;BME280;45631;51.962;5.974;2023-04-01T09:15:19;99394.41;;;10.33;100.00
59757;BME280;45631;51.962;5.974;2023-04-01T09:18:13;99393.59;;;10.32;100.00
59757;BME280;45631;51.962;5.974;2023-04-01T09:20:48;99397.38;;;10.40;100.00
59757;BME280;45631;51.962;5.974;2023-04-01T09:26:35;99401.31;;;10.65;100.00
59757;BME280;45631;51.962;5.974;2023-04-01T09:29:27;99406.16;;;10.60;100.00
59757;BME280;45631;51.962;5.974;2023-04-01T09:32:13;99412.38;;;10.69;100.00
59757;BME280;45631;51.962;5.974;2023-04-01T09:34:54;99417.84;;;10.87;100.00
59757;BME280;45631;51.962;5.974;2023-04-01T09:37:33;99417.78;;;10.67;100.00
59757;BME280;45631;51.962;5.974;2023-04-01T09:40:14;99423.75;;;10.69;100.00
59757;BME280;45631;51.962;5.974;2023-04-01T09:42:47;99432.31;;;10.61;100.00
59757;BME280;45631;51.962;5.974;2023-04-01T09:45:41;99431.06;;;10.65;100.00
59757;BME280;45631;51.962;5.974;2023-04-01T09:48:27;99435.22;;;10.58;100.00
59757;BME280;45631;51.962;5.974;2023-04-01T09:51:05;99438.00;;;10.67;100.00
59757;BME280;45631;51.962;5.974;2023-04-01T09:53:50;99439.22;;;10.62;100.00
59757;BME280;45631;51.962;5.974;2023-04-01T09:56:42;99442.44;;;10.76;100.00
59757;BME280;45631;51.962;5.974;2023-04-01T10:03:00;99454.72;;;10.65;100.00
59757;BME280;45631;51.962;5.974;2023-04-01T10:06:09;99459.81;;;10.57;100.00
59757;BME280;45631;51.962;5.974;2023-04-01T10:12:20;99461.84;;;10.44;100.00
59757;BME280;45631;51.962;5.974;2023-04-01T10:18:45;99473.31;;;10.43;100.00
59757;BME280;45631;51.962;5.974;2023-04-01T10:25:25;99480.94;;;10.36;100.00
59757;BME280;45631;51.962;5.974;2023-04-01T10:28:18;99481.47;;;10.40;100.00
59757;BME280;45631;51.962;5.974;2023-04-01T10:31:14;99487.44;;;10.42;100.00
59757;BME280;45631;51.962;5.974;2023-04-01T10:34:20;99492.25;;;10.37;100.00
59757;BME280;45631;51.962;5.974;2023-04-01T10:36:53;99487.00;;;10.37;100.00
59757;BME280;45631;51.962;5.974;2023-04-01T10:39:48;99494.09;;;10.46;100.00
59757;BME280;45631;51.962;5.974;2023-04-01T10:42:49;99493.31;;;10.55;100.00
59757;BME280;45631;51.962;5.974;2023-04-01T10:45:44;99495.22;;;10.53;100.00
59757;BME280;45631;51.962;5.974;2023-04-01T10:52:07;99508.53;;;10.61;100.00
59757;BME280;45631;51.962;5.974;2023-04-01T10:54:46;99502.22;;;10.74;100.00
59757;BME280;45631;51.962;5.974;2023-04-01T11:00:30;99504.22;;;10.91;100.00
59757;BME280;45631;51.962;5.974;2023-04-01T11:06:43;99511.97;;;11.03;100.00
59757;BME280;45631;51.962;5.974;2023-04-01T11:09:41;99515.03;;;11.08;100.00
59757;BME280;45631;51.962;5.974;2023-04-01T11:12:37;99515.63;;;11.11;100.00
59757;BME280;45631;51.962;5.974;2023-04-01T11:15:34;99521.13;;;11.08;100.00
59757;BME280;45631;51.962;5.974;2023-04-01T11:21:49;99525.03;;;11.14;100.00
59757;BME280;45631;51.962;5.974;2023-04-01T11:24:48;99527.50;;;11.06;100.00
59757;BME280;45631;51.962;5.974;2023-04-01T11:27:43;99526.13;;;11.02;100.00
59757;BME280;45631;51.962;5.974;2023-04-01T11:30:21;99530.25;;;10.94;100.00
59757;BME280;45631;51.962;5.974;2023-04-01T11:32:57;99534.69;;;11.04;100.00
59757;BME280;45631;51.962;5.974;2023-04-01T11:35:42;99534.25;;;10.98;100.00
59757;BME280;45631;51.962;5.974;2023-04-01T11:38:26;99548.34;;;10.88;100.00
59757;BME280;45631;51.962;5.974;2023-04-01T11:41:06;99552.94;;;10.86;100.00
59757;BME280;45631;51.962;5.974;2023-04-01T11:43:39;99560.47;;;10.69;100.00
59757;BME280;45631;51.962;5.974;2023-04-01T11:46:12;99552.97;;;10.64;100.00
59757;BME280;45631;51.962;5.974;2023-04-01T11:49:00;99554.06;;;10.62;100.00
59757;BME280;45631;51.962;5.974;2023-04-01T11:51:54;99554.50;;;10.67;100.00
59757;BME280;45631;51.962;5.974;2023-04-01T11:54:39;99560.78;;;10.76;100.00
59757;BME280;45631;51.962;5.974;2023-04-01T11:57:23;99563.81;;;10.81;100.00
59757;BME280;45631;51.962;5.974;2023-04-01T12:00:24;99565.63;;;10.80;100.00
59757;BME280;45631;51.962;5.974;2023-04-01T12:03:08;99567.50;;;10.69;100.00
59757;BME280;45631;51.962;5.974;2023-04-01T12:05:43;99566.97;;;10.65;100.00
59757;BME280;45631;51.962;5.974;2023-04-01T12:08:23;99576.84;;;10.52;100.00
59757;BME280;45631;51.962;5.974;2023-04-01T12:10:59;99572.19;;;10.55;100.00
59757;BME280;45631;51.962;5.974;2023-04-01T12:13:39;99588.19;;;10.52;100.00
59757;BME280;45631;51.962;5.974;2023-04-01T12:16:36;99582.88;;;10.42;100.00
59757;BME280;45631;51.962;5.974;2023-04-01T12:19:15;99589.28;;;10.49;100.00
59757;BME280;45631;51.962;5.974;2023-04-01T12:21:52;99598.75;;;10.62;100.00
59757;BME280;45631;51.962;5.974;2023-04-01T12:24:40;99599.09;;;10.47;100.00
59757;BME280;45631;51.962;5.974;2023-04-01T12:27:28;99608.66;;;10.48;100.00
59757;BME280;45631;51.962;5.974;2023-04-01T12:30:18;99618.06;;;10.51;100.00
59757;BME280;45631;51.962;5.974;2023-04-01T12:32:59;99614.16;;;10.45;100.00
59757;BME280;45631;51.962;5.974;2023-04-01T12:35:33;99616.66;;;10.47;100.00
59757;BME280;45631;51.962;5.974;2023-04-01T12:38:22;99619.56;;;10.44;100.00
59757;BME280;45631;51.962;5.974;2023-04-01T12:41:08;99628.38;;;10.43;100.00
59757;BME280;45631;51.962;5.974;2023-04-01T12:46:35;99632.44;;;10.47;100.00
59757;BME280;45631;51.962;5.974;2023-04-01T12:52:10;99640.91;;;10.51;100.00
59757;BME280;45631;51.962;5.974;2023-04-01T13:03:55;99660.78;;;10.64;100.00
59757;BME280;45631;51.962;5.974;2023-04-01T13:09:34;99665.78;;;10.68;100.00
59757;BME280;45631;51.962;5.974;2023-04-01T13:12:25;99671.47;;;10.73;100.00
59757;BME280;45631;51.962;5.974;2023-04-01T13:15:29;99678.28;;;10.75;100.00
59757;BME280;45631;51.962;5.974;2023-04-01T13:18:07;99682.84;;;10.73;100.00
59757;BME280;45631;51.962;5.974;2023-04-01T13:20:45;99691.06;;;10.80;100.00
59757;BME280;45631;51.962;5.974;2023-04-01T13:23:34;99696.31;;;10.80;100.00
59757;BME280;45631;51.962;5.974;2023-04-01T13:26:13;99691.94;;;10.90;100.00
59757;BME280;45631;51.962;5.974;2023-04-01T13:28:47;99688.66;;;10.98;100.00
59757;BME280;45631;51.962;5.974;2023-04-01T13:31:33;99694.78;;;11.08;100.00
59757;BME280;45631;51.962;5.974;2023-04-01T13:34:20;99705.06;;;11.11;100.00
59757;BME280;45631;51.962;5.974;2023-04-01T13:37:02;99700.66;;;11.22;100.00
59757;BME280;45631;51.962;5.974;2023-04-01T13:39:46;99705.09;;;11.21;100.00
59757;BME280;45631;51.962;5.974;2023-04-01T13:42:21;99710.22;;;11.23;100.00
59757;BME280;45631;51.962;5.974;2023-04-01T13:44:55;99713.44;;;11.26;100.00
59757;BME280;45631;51.962;5.974;2023-04-01T13:47:37;99719.38;;;11.28;100.00
59757;BME280;45631;51.962;5.974;2023-04-01T13:50:28;99738.94;;;11.36;100.00
59757;BME280;45631;51.962;5.974;2023-04-01T13:53:34;99742.13;;;11.29;100.00
59757;BME280;45631;51.962;5.974;2023-04-01T13:56:23;99746.66;;;11.27;100.00
59757;BME280;45631;51.962;5.974;2023-04-01T13:59:03;99733.66;;;11.26;100.00
59757;BME280;45631;51.962;5.974;2023-04-01T14:01:41;99745.97;;;11.25;100.00
59757;BME280;45631;51.962;5.974;2023-04-01T14:04:34;99745.56;;;11.30;100.00
59757;BME280;45631;51.962;5.974;2023-04-01T14:07:18;99748.88;;;11.22;100.00
59757;BME280;45631;51.962;5.974;2023-04-01T14:10:06;99754.47;;;11.29;100.00
59757;BME280;45631;51.962;5.974;2023-04-01T14:12:40;99762.34;;;11.29;100.00
59757;BME280;45631;51.962;5.974;2023-04-01T14:15:32;99762.22;;;11.30;100.00
59757;BME280;45631;51.962;5.974;2023-04-01T14:18:25;99766.63;;;11.30;100.00
59757;BME280;45631;51.962;5.974;2023-04-01T14:23:57;99778.94;;;11.20;100.00
59757;BME280;45631;51.962;5.974;2023-04-01T14:26:38;99781.69;;;11.18;100.00
59757;BME280;45631;51.962;5.974;2023-04-01T14:29:18;99783.91;;;11.23;100.00
59757;BME280;45631;51.962;5.974;2023-04-01T14:31:59;99783.09;;;11.22;100.00
59757;BME280;45631;51.962;5.974;2023-04-01T14:34:39;99793.34;;;11.25;100.00
59757;BME280;45631;51.962;5.974;2023-04-01T14:37:20;99795.16;;;11.25;100.00
59757;BME280;45631;51.962;5.974;2023-04-01T14:40:16;99794.63;;;11.31;100.00
59757;BME280;45631;51.962;5.974;2023-04-01T14:43:02;99805.69;;;11.25;100.00
59757;BME280;45631;51.962;5.974;2023-04-01T14:48:52;99805.75;;;11.13;100.00